Time;durP1;ratioP1;P1;durP2;ratioP2;P2;SDS_P1;SDS_P2;PMS_P1;PMS_P2;Temp;Humidity;BMP_temperature;BMP_pressure;BME280_temperature;BME280_humidity;BME280_pressure;Samples;Min_cycle;Max_cycle;Signal;HPM_P1;HPM_P2
2022/05/25 00:00:05;;;;;;;8.43;1.48;;;23.80;85.90;;;;;;5044584;28;20204;-84
2022/05/25 00:02:32;;;;;;;4.57;1.55;;;23.80;86.10;;;;;;5043779;28;20197;-83
2022/05/25 00:04:59;;;;;;;4.88;1.15;;;23.80;86.30;;;;;;5046855;28;20304;-84
2022/05/25 00:07:26;;;;;;;6.47;1.40;;;23.80;86.50;;;;;;5044334;28;20240;-85
2022/05/25 00:09:53;;;;;;;3.17;1.38;;;23.80;86.70;;;;;;5043573;28;20201;-84
2022/05/25 00:12:21;;;;;;;2.88;1.20;;;23.80;87.60;;;;;;5042708;28;20292;-84
2022/05/25 00:14:48;;;;;;;3.63;1.52;;;23.80;87.10;;;;;;5041285;28;20199;-85
2022/05/25 00:17:16;;;;;;;4.10;1.30;;;23.80;87.30;;;;;;5043493;28;20291;-84
2022/05/25 00:20:03;;;;;;;5.82;1.35;;;23.80;87.50;;;;;;5039540;28;20571;-85
2022/05/25 00:22:40;;;;;;;4.80;1.40;;;23.80;87.70;;;;;;5044580;28;20192;-84
2022/05/25 00:25:09;;;;;;;3.08;1.30;;;23.90;88.10;;;;;;5041642;28;20296;-84
2022/05/25 00:27:40;;;;;;;5.60;1.10;;;23.80;88.30;;;;;;5039585;28;20311;-83
2022/05/25 00:30:08;;;;;;;3.95;1.95;;;23.80;88.40;;;;;;5040773;28;20728;-83
2022/05/25 00:32:34;;;;;;;6.45;2.20;;;23.80;88.70;;;;;;5040923;28;20216;-83
2022/05/25 00:35:02;;;;;;;7.65;1.50;;;23.80;89.00;;;;;;5040189;28;20207;-84
2022/05/25 00:37:29;;;;;;;6.20;1.25;;;23.80;89.30;;;;;;5039342;28;20240;-84
2022/05/25 00:39:55;;;;;;;6.90;1.70;;;23.80;89.30;;;;;;5041190;28;20228;-84
2022/05/25 00:42:22;;;;;;;7.53;1.23;;;23.80;89.30;;;;;;5041569;28;20239;-84
2022/05/25 00:44:50;;;;;;;5.93;1.00;;;23.80;89.50;;;;;;5040347;28;20240;-84
2022/05/25 00:47:26;;;;;;;8.02;1.10;;;23.80;89.60;;;;;;5042220;28;20235;-86
2022/05/25 00:49:53;;;;;;;2.25;1.10;;;23.90;89.90;;;;;;5040490;28;20239;-84
2022/05/25 00:52:20;;;;;;;5.68;1.75;;;23.80;90.00;;;;;;5039801;28;20232;-84
2022/05/25 00:54:51;;;;;;;6.70;1.70;;;23.80;90.00;;;;;;5035890;28;20287;-84
2022/05/25 00:57:22;;;;;;;6.80;1.38;;;23.80;90.10;;;;;;5037485;28;20227;-84
2022/05/25 00:59:58;;;;;;;6.30;1.40;;;23.80;90.20;;;;;;5036054;28;20195;-84
2022/05/25 01:02:28;;;;;;;8.93;1.40;;;23.80;90.30;;;;;;5039301;28;20631;-83
2022/05/25 01:04:55;;;;;;;2.75;0.80;;;23.80;90.40;;;;;;5040344;28;20311;-83
2022/05/25 01:07:50;;;;;;;3.45;1.30;;;23.80;90.50;;;;;;5040055;28;20244;-83
2022/05/25 01:10:32;;;;;;;2.45;1.08;;;23.90;90.50;;;;;;5038750;28;20552;-84
2022/05/25 01:13:11;;;;;;;5.63;1.30;;;23.80;90.60;;;;;;5038747;28;20192;-84
2022/05/25 01:15:51;;;;;;;5.13;1.52;;;23.80;90.70;;;;;;5040066;28;20711;-83
2022/05/25 01:18:26;;;;;;;3.85;1.27;;;23.80;90.80;;;;;;5040760;28;20311;-83
2022/05/25 01:20:56;;;;;;;5.35;1.30;;;23.80;91.20;;;;;;5042732;28;20212;-83
2022/05/25 01:23:59;;;;;;;3.20;1.10;;;23.80;91.00;;;;;;5038765;28;20684;-84
2022/05/25 01:26:59;;;;;;;6.43;1.35;;;23.80;90.90;;;;;;5021769;28;20303;-83
2022/05/25 01:29:51;;;;;;;3.67;1.85;;;23.80;91.10;;;;;;5045692;28;20670;-83
2022/05/25 01:32:24;;;;;;;12.30;1.35;;;23.80;91.10;;;;;;5041890;28;20272;-83
2022/05/25 01:34:56;;;;;;;10.25;1.13;;;23.80;91.30;;;;;;5039878;28;20273;-83
2022/05/25 01:37:30;;;;;;;12.43;1.50;;;23.80;91.40;;;;;;5041838;28;20240;-83
2022/05/25 01:40:03;;;;;;;3.25;1.20;;;23.80;91.40;;;;;;5042471;28;20212;-83
2022/05/25 01:42:34;;;;;;;7.82;1.50;;;23.80;91.80;;;;;;5041948;28;20223;-83
2022/05/25 01:45:07;;;;;;;8.00;1.30;;;23.80;91.50;;;;;;5042903;28;20248;-83
2022/05/25 01:47:38;;;;;;;3.83;1.13;;;23.80;91.60;;;;;;5042881;28;20308;-83
2022/05/25 01:50:10;;;;;;;6.32;1.30;;;23.80;91.70;;;;;;5043789;28;20240;-83
2022/05/25 01:52:41;;;;;;;5.93;1.77;;;23.80;91.70;;;;;;5041024;28;20256;-82
2022/05/25 01:55:12;;;;;;;3.78;1.00;;;23.80;91.70;;;;;;5040930;28;20217;-82
2022/05/25 01:57:44;;;;;;;9.40;1.08;;;23.80;91.80;;;;;;5039241;28;20256;-83
2022/05/25 02:00:26;;;;;;;7.05;1.35;;;23.80;91.80;;;;;;5035823;28;20223;-83
2022/05/25 02:05:44;;;;;;;6.25;1.17;;;23.80;92.00;;;;;;5075580;28;20687;-80
2022/05/25 02:08:19;;;;;;;2.17;1.00;;;23.80;92.10;;;;;;5075026;28;20266;-79
2022/05/25 02:10:56;;;;;;;2.42;1.08;;;23.80;92.10;;;;;;5075560;28;20279;-79
2022/05/25 02:13:43;;;;;;;1.30;0.88;;;23.80;92.20;;;;;;5075098;28;20219;-80
2022/05/25 02:16:19;;;;;;;4.90;1.35;;;23.80;92.20;;;;;;5075288;28;20271;-80
2022/05/25 02:18:53;;;;;;;2.55;1.00;;;23.80;92.20;;;;;;5075697;28;20191;-79
2022/05/25 02:21:28;;;;;;;1.83;0.82;;;23.80;92.20;;;;;;5074950;28;20709;-80
2022/05/25 02:23:59;;;;;;;3.33;0.90;;;23.80;92.20;;;;;;5074766;28;20300;-79
2022/05/25 02:26:29;;;;;;;4.65;1.35;;;23.80;92.40;;;;;;5074960;28;20238;-79
2022/05/25 02:29:01;;;;;;;2.47;1.10;;;23.80;92.50;;;;;;5074355;28;20200;-80
2022/05/25 02:31:36;;;;;;;5.30;1.13;;;23.80;92.50;;;;;;5075130;28;20191;-80
2022/05/25 02:34:06;;;;;;;3.97;0.80;;;23.70;92.60;;;;;;5074328;28;20655;-80
2022/05/25 02:36:35;;;;;;;5.30;0.98;;;23.80;92.70;;;;;;5073907;28;20199;-79
2022/05/25 02:39:05;;;;;;;4.05;1.13;;;23.80;92.80;;;;;;5073885;28;20210;-78
2022/05/25 02:41:34;;;;;;;4.18;1.23;;;23.80;92.90;;;;;;5074226;28;20199;-78
2022/05/25 02:44:03;;;;;;;4.45;1.17;;;23.80;92.90;;;;;;5074069;28;20650;-80
2022/05/25 02:46:31;;;;;;;5.32;0.93;;;23.80;93.00;;;;;;5074108;28;20226;-80
2022/05/25 02:48:58;;;;;;;5.40;1.00;;;23.80;93.10;;;;;;5074289;28;20774;-80
2022/05/25 02:51:25;;;;;;;2.58;1.08;;;23.80;93.20;;;;;;5074695;28;20647;-80
2022/05/25 02:53:52;;;;;;;3.05;0.73;;;23.80;93.20;;;;;;5074395;28;20215;-80
2022/05/25 02:56:19;;;;;;;8.00;1.00;;;23.80;93.30;;;;;;5074708;28;20693;-80
2022/05/25 02:58:46;;;;;;;3.50;1.20;;;23.80;93.40;;;;;;5074254;28;20231;-80
2022/05/25 03:01:13;;;;;;;6.18;1.15;;;23.80;93.50;;;;;;5074744;28;20203;-80
2022/05/25 03:03:41;;;;;;;4.43;1.20;;;23.80;93.50;;;;;;5075255;28;20233;-81
2022/05/25 03:06:09;;;;;;;6.53;1.10;;;23.80;93.90;;;;;;5076773;28;20314;-81
2022/05/25 03:08:36;;;;;;;5.25;1.40;;;23.80;93.70;;;;;;5076234;28;20290;-80
2022/05/25 03:11:03;;;;;;;5.22;1.13;;;23.70;93.70;;;;;;5076026;28;20235;-79
2022/05/25 03:13:30;;;;;;;4.65;1.00;;;23.80;93.80;;;;;;5076671;28;20220;-79
2022/05/25 03:15:59;;;;;;;3.97;0.80;;;23.80;93.90;;;;;;5076858;28;20223;-79
2022/05/25 03:18:26;;;;;;;1.30;0.90;;;23.80;93.90;;;;;;5077345;28;20238;-79
2022/05/25 03:20:54;;;;;;;4.72;1.20;;;23.80;94.00;;;;;;5078638;28;20259;-81
2022/05/25 03:23:21;;;;;;;2.58;0.80;;;23.80;94.00;;;;;;5081634;28;20721;-80
2022/05/25 03:25:49;;;;;;;2.33;0.77;;;23.80;94.10;;;;;;5082231;28;20233;-80
2022/05/25 03:28:16;;;;;;;7.32;1.10;;;23.80;94.20;;;;;;5080711;28;20305;-80
2022/05/25 03:30:44;;;;;;;4.22;1.08;;;23.80;94.30;;;;;;5079738;28;20573;-80
2022/05/25 03:33:11;;;;;;;2.78;1.10;;;23.80;94.30;;;;;;5079644;28;20227;-80
2022/05/25 03:35:38;;;;;;;3.55;0.90;;;23.80;94.40;;;;;;5079403;28;20199;-80
2022/05/25 03:38:06;;;;;;;7.03;1.00;;;23.80;94.50;;;;;;5079173;28;20238;-79
2022/05/25 03:40:34;;;;;;;4.55;0.82;;;23.80;94.50;;;;;;5079603;28;20286;-79
2022/05/25 03:43:01;;;;;;;2.63;1.02;;;23.80;94.70;;;;;;5081880;28;20222;-81
2022/05/25 03:45:27;;;;;;;5.03;0.90;;;23.80;94.70;;;;;;5081371;28;20215;-80
2022/05/25 03:47:54;;;;;;;3.80;0.82;;;23.80;94.70;;;;;;5080961;28;20227;-80
2022/05/25 03:50:23;;;;;;;5.97;0.82;;;23.70;94.60;;;;;;5080230;28;20218;-80
2022/05/25 03:52:50;;;;;;;1.92;0.75;;;23.70;94.70;;;;;;5079039;28;20581;-80
2022/05/25 03:55:18;;;;;;;4.05;0.82;;;23.70;94.90;;;;;;5078616;28;20325;-79
2022/05/25 03:57:45;;;;;;;1.98;1.17;;;23.80;95.00;;;;;;5078014;28;20202;-79
2022/05/25 04:00:13;;;;;;;6.88;0.75;;;23.70;95.00;;;;;;5078294;28;20204;-79
2022/05/25 04:02:39;;;;;;;1.38;0.77;;;23.80;95.20;;;;;;5077994;28;20223;-79
2022/05/25 04:05:10;;;;;;;11.13;1.35;;;23.80;95.30;;;;;;5078863;28;20286;-79
2022/05/25 04:07:38;;;;;;;2.90;0.95;;;23.80;95.40;;;;;;5078090;28;20234;-79
2022/05/25 04:10:07;;;;;;;4.97;0.68;;;23.80;95.40;;;;;;5078843;28;20200;-81
2022/05/25 04:12:35;;;;;;;7.10;1.23;;;23.80;95.50;;;;;;5079842;28;20302;-82
2022/05/25 04:15:02;;;;;;;4.70;0.90;;;23.80;95.50;;;;;;5079602;28;20282;-83
2022/05/25 04:17:29;;;;;;;4.07;1.02;;;23.80;95.90;;;;;;5080373;28;20372;-82
2022/05/25 04:19:56;;;;;;;5.68;1.02;;;23.80;95.60;;;;;;5080961;28;20227;-82
2022/05/25 04:22:24;;;;;;;4.45;0.90;;;23.70;95.60;;;;;;5083865;28;20263;-82
2022/05/25 04:24:51;;;;;;;2.65;1.00;;;23.70;95.70;;;;;;5081691;28;20236;-83
2022/05/25 04:27:18;;;;;;;2.05;0.80;;;23.70;95.80;;;;;;5077958;28;20638;-84
2022/05/25 04:29:46;;;;;;;2.33;0.77;;;23.70;95.80;;;;;;5077361;28;20290;-79
2022/05/25 04:32:13;;;;;;;3.30;0.73;;;23.70;95.80;;;;;;5079497;28;20201;-79
2022/05/25 04:34:39;;;;;;;0.47;0.30;;;23.70;95.80;;;;;;5077399;28;20214;-79
2022/05/25 04:39:51;;;;;;;0.70;0.70;;;23.70;94.90;;;;;;5077918;28;20178;-80
2022/05/25 04:42:18;;;;;;;1.08;0.45;;;23.60;94.60;;;;;;5079261;28;20294;-82
2022/05/25 04:44:47;;;;;;;6.72;0.55;;;23.50;94.20;;;;;;5079281;28;20195;-82
2022/05/25 04:47:14;;;;;;;1.75;0.50;;;23.50;93.80;;;;;;5078387;28;20229;-78
2022/05/25 04:49:44;;;;;;;0.30;0.30;;;23.40;93.30;;;;;;5076995;28;20230;-77
2022/05/25 04:52:11;;;;;;;2.60;0.68;;;23.40;92.90;;;;;;5076651;28;20658;-79
2022/05/25 04:54:38;;;;;;;5.30;0.60;;;23.30;92.60;;;;;;5077290;28;20266;-80
2022/05/25 04:57:19;;;;;;;13.13;0.82;;;23.30;92.30;;;;;;5078697;28;20282;-79
2022/05/25 04:59:48;;;;;;;12.68;0.82;;;23.30;92.10;;;;;;5077937;28;20179;-77
2022/05/25 05:02:15;;;;;;;2.30;0.40;;;23.30;91.90;;;;;;5076406;28;20238;-79
2022/05/25 05:04:42;;;;;;;0.50;0.40;;;23.30;91.60;;;;;;5079378;28;20184;-80
2022/05/25 05:07:09;;;;;;;3.63;0.88;;;23.20;91.20;;;;;;5077145;28;20769;-77
2022/05/25 05:09:36;;;;;;;2.35;0.55;;;23.30;91.00;;;;;;5075506;28;20195;-76
2022/05/25 05:12:04;;;;;;;7.95;0.65;;;23.30;90.80;;;;;;5075679;28;20202;-76
2022/05/25 05:14:31;;;;;;;12.15;0.80;;;23.30;90.50;;;;;;5076192;28;20202;-77
2022/05/25 05:17:01;;;;;;;7.55;1.15;;;23.20;90.20;;;;;;5075507;28;20200;-77
2022/05/25 05:19:28;;;;;;;0.45;0.40;;;23.20;89.60;;;;;;5075860;28;20210;-76
2022/05/25 05:21:57;;;;;;;8.98;0.65;;;23.20;88.70;;;;;;5075080;28;20203;-76
2022/05/25 05:24:24;;;;;;;5.78;0.88;;;23.10;87.10;;;;;;5075484;28;20314;-77
2022/05/25 05:26:51;;;;;;;8.60;1.42;;;23.10;86.90;;;;;;5075232;28;20306;-77
2022/05/25 05:29:18;;;;;;;15.38;2.75;;;23.10;87.00;;;;;;5075223;28;20202;-77
2022/05/25 05:31:45;;;;;;;6.25;0.93;;;23.10;87.00;;;;;;5074953;28;20190;-77
2022/05/25 05:34:13;;;;;;;12.38;2.25;;;23.10;86.70;;;;;;5075770;28;20660;-78
2022/05/25 05:36:44;;;;;;;11.98;2.00;;;23.20;86.70;;;;;;5075888;28;20205;-77
2022/05/25 05:39:13;;;;;;;5.95;1.48;;;23.20;86.30;;;;;;5075904;28;20279;-77
2022/05/25 05:41:43;;;;;;;10.10;1.33;;;23.20;85.90;;;;;;5076151;28;20207;-76
2022/05/25 05:44:13;;;;;;;11.55;1.33;;;23.20;85.70;;;;;;5075280;28;20226;-77
2022/05/25 05:46:42;;;;;;;10.00;1.50;;;23.20;85.40;;;;;;5075833;28;20223;-77
2022/05/25 05:49:09;;;;;;;5.22;1.35;;;23.20;85.10;;;;;;5075166;28;20229;-76
2022/05/25 05:51:38;;;;;;;3.58;1.38;;;23.30;85.10;;;;;;5074608;28;20233;-77
2022/05/25 05:54:06;;;;;;;10.07;1.52;;;23.30;85.00;;;;;;5075085;28;20230;-77
2022/05/25 05:56:34;;;;;;;14.30;1.80;;;23.30;84.80;;;;;;5074854;28;20282;-76
2022/05/25 05:59:01;;;;;;;9.40;1.52;;;23.30;84.60;;;;;;5074860;28;20203;-76
2022/05/25 06:01:28;;;;;;;23.83;1.27;;;23.30;84.50;;;;;;5074366;28;20775;-76
2022/05/25 06:03:55;;;;;;;9.48;1.02;;;23.30;84.30;;;;;;5074222;28;20233;-76
2022/05/25 06:06:23;;;;;;;7.68;1.63;;;23.30;84.10;;;;;;5074580;28;20311;-76
2022/05/25 06:08:52;;;;;;;9.95;2.13;;;23.30;83.90;;;;;;5074558;28;20206;-76
2022/05/25 06:11:20;;;;;;;8.40;1.15;;;23.30;83.70;;;;;;5074145;28;20569;-76
2022/05/25 06:13:48;;;;;;;8.88;1.25;;;23.30;83.60;;;;;;5074093;28;20291;-76
2022/05/25 06:21:43;;;;;;;4.75;1.15;;;23.30;83.00;;;;;;5074188;28;20186;-76
2022/05/25 06:24:11;;;;;;;7.20;1.58;;;23.30;83.00;;;;;;5074251;28;20229;-76
2022/05/25 06:26:38;;;;;;;3.53;1.40;;;23.30;83.00;;;;;;5074122;28;20215;-76
2022/05/25 06:29:05;;;;;;;4.70;1.20;;;23.30;83.00;;;;;;5074168;28;20238;-76
2022/05/25 06:31:33;;;;;;;7.35;1.52;;;23.30;83.00;;;;;;5073828;28;20238;-76
2022/05/25 06:34:00;;;;;;;8.60;1.63;;;23.30;83.00;;;;;;5074044;28;20302;-76
2022/05/25 06:36:29;;;;;;;5.00;1.10;;;23.30;82.80;;;;;;5074085;28;20199;-76
2022/05/25 06:38:58;;;;;;;3.88;1.10;;;23.30;82.70;;;;;;5074903;28;20221;-76
2022/05/25 06:41:27;;;;;;;7.70;1.73;;;23.30;82.40;;;;;;5073664;28;20693;-76
2022/05/25 06:43:53;;;;;;;5.05;0.90;;;23.30;82.30;;;;;;5073727;28;20336;-76
2022/05/25 06:46:21;;;;;;;4.32;0.80;;;23.30;82.90;;;;;;5073991;28;20314;-76
2022/05/25 06:48:49;;;;;;;8.70;1.52;;;23.30;81.90;;;;;;5073951;28;20199;-76
2022/05/25 06:51:18;;;;;;;7.13;1.15;;;23.30;81.90;;;;;;5073899;28;20278;-76
2022/05/25 06:53:45;;;;;;;6.47;1.40;;;23.30;81.70;;;;;;5073881;28;20221;-76
2022/05/25 06:56:12;;;;;;;5.72;1.10;;;23.30;81.60;;;;;;5073090;28;20226;-76
2022/05/25 06:58:40;;;;;;;5.00;0.95;;;23.30;81.50;;;;;;5073857;28;20199;-76
2022/05/25 07:01:07;;;;;;;4.80;1.17;;;23.30;81.30;;;;;;5073849;28;20295;-76
2022/05/25 07:03:33;;;;;;;8.52;0.80;;;23.30;81.30;;;;;;5073528;28;20322;-76
2022/05/25 07:06:04;;;;;;;4.22;0.80;;;23.30;81.20;;;;;;5073653;28;20617;-76
2022/05/25 07:08:31;;;;;;;4.45;1.05;;;23.40;81.10;;;;;;5074024;28;20194;-76
2022/05/25 07:10:57;;;;;;;5.72;1.48;;;23.30;81.00;;;;;;5073774;28;20238;-75
2022/05/25 07:13:25;;;;;;;1.95;0.90;;;23.40;80.90;;;;;;5073561;28;20226;-76
2022/05/25 07:15:57;;;;;;;5.00;1.00;;;23.30;80.60;;;;;;5073591;28;20211;-76
2022/05/25 07:18:25;;;;;;;6.50;0.93;;;23.40;80.50;;;;;;5073584;28;20184;-76
2022/05/25 07:20:51;;;;;;;2.50;0.85;;;23.40;80.50;;;;;;5073475;28;20199;-76
2022/05/25 07:23:19;;;;;;;5.68;0.90;;;23.30;80.30;;;;;;5073462;28;20254;-76
2022/05/25 07:25:46;;;;;;;5.95;1.10;;;23.30;80.20;;;;;;5073520;28;20567;-76
2022/05/25 07:28:13;;;;;;;5.43;1.33;;;23.30;80.10;;;;;;5073021;28;20314;-76
2022/05/25 07:30:40;;;;;;;7.78;1.02;;;23.30;79.90;;;;;;5073085;28;20238;-76
2022/05/25 07:33:09;;;;;;;6.03;1.20;;;23.40;79.90;;;;;;5073326;28;20251;-76
2022/05/25 07:35:37;;;;;;;1.13;0.75;;;23.40;79.80;;;;;;5074086;28;20199;-76
2022/05/25 07:38:05;;;;;;;1.08;0.57;;;23.40;79.70;;;;;;5073062;28;20556;-75
2022/05/25 07:40:37;;;;;;;5.20;0.73;;;23.40;79.60;;;;;;5073348;28;20286;-75
2022/05/25 07:43:09;;;;;;;0.77;0.68;;;23.40;79.40;;;;;;5073305;28;20215;-76
2022/05/25 07:45:36;;;;;;;4.38;0.63;;;23.40;79.30;;;;;;5073342;28;20551;-76
2022/05/25 07:48:03;;;;;;;1.75;0.65;;;23.40;79.30;;;;;;5072907;28;20231;-76
2022/05/25 07:50:33;;;;;;;1.00;0.52;;;23.40;79.20;;;;;;5072980;28;20749;-76
2022/05/25 07:53:02;;;;;;;1.02;0.60;;;23.40;79.00;;;;;;5072907;28;20716;-76
2022/05/25 07:55:29;;;;;;;3.10;0.65;;;23.40;78.80;;;;;;5072922;28;20659;-76
2022/05/25 07:57:56;;;;;;;4.95;1.10;;;23.40;79.50;;;;;;5072877;28;20633;-76
2022/05/25 08:00:25;;;;;;;3.03;0.70;;;23.40;78.60;;;;;;5072795;28;20562;-76
2022/05/25 08:05:44;;;;;;;2.25;0.60;;;23.40;78.40;;;;;;5073120;28;20199;-76
2022/05/25 08:08:14;;;;;;;2.30;0.70;;;23.40;78.40;;;;;;5074858;28;20204;-75
2022/05/25 08:10:43;;;;;;;2.05;0.68;;;23.40;78.30;;;;;;5076494;28;20531;-75
2022/05/25 08:13:16;;;;;;;0.63;0.63;;;23.40;78.20;;;;;;5076419;28;20223;-76
2022/05/25 08:15:43;;;;;;;1.95;0.55;;;23.40;78.00;;;;;;5076405;28;20631;-76
2022/05/25 08:18:10;;;;;;;0.93;0.45;;;23.40;77.90;;;;;;5076663;28;20203;-76
2022/05/25 08:20:38;;;;;;;2.53;0.68;;;23.40;77.80;;;;;;5076559;28;20203;-76
2022/05/25 08:23:11;;;;;;;2.88;0.70;;;23.40;77.60;;;;;;5076201;28;20585;-76
2022/05/25 08:25:38;;;;;;;1.27;0.50;;;23.40;77.40;;;;;;5076562;28;20188;-76
2022/05/25 08:28:06;;;;;;;1.70;0.68;;;23.40;77.30;;;;;;5076093;28;20694;-76
2022/05/25 08:30:35;;;;;;;2.03;0.70;;;23.40;77.30;;;;;;5076104;28;20678;-76
2022/05/25 08:33:02;;;;;;;2.17;0.60;;;23.40;77.30;;;;;;5076354;28;20262;-76
2022/05/25 08:35:30;;;;;;;0.88;0.47;;;23.40;77.30;;;;;;5076054;28;20666;-76
2022/05/25 08:37:57;;;;;;;1.50;0.40;;;23.40;77.20;;;;;;5076398;28;20195;-76
2022/05/25 08:40:28;;;;;;;1.00;0.40;;;23.40;76.90;;;;;;5076359;28;20226;-76
2022/05/25 08:43:00;;;;;;;2.47;0.55;;;23.40;76.80;;;;;;5076155;28;20226;-77
2022/05/25 08:45:34;;;;;;;3.20;0.70;;;23.40;76.60;;;;;;5076156;28;20188;-77
2022/05/25 08:48:03;;;;;;;3.30;0.50;;;23.40;76.30;;;;;;5076076;28;20213;-77
2022/05/25 08:50:30;;;;;;;0.80;0.35;;;23.40;76.20;;;;;;5076069;28;20203;-77
2022/05/25 08:52:58;;;;;;;0.43;0.40;;;23.40;75.90;;;;;;5076329;28;20219;-77
2022/05/25 08:55:55;;;;;;;1.98;0.60;;;23.40;75.80;;;;;;5075958;28;20199;-76
2022/05/25 08:58:24;;;;;;;3.85;0.57;;;23.40;75.30;;;;;;5075565;28;20202;-77
2022/05/25 09:00:53;;;;;;;1.08;0.55;;;23.40;75.50;;;;;;5075860;28;20210;-77
2022/05/25 09:03:29;;;;;;;2.75;0.50;;;23.40;75.20;;;;;;5075486;28;20316;-77
2022/05/25 09:06:03;;;;;;;3.60;0.40;;;23.40;75.00;;;;;;5075799;28;20629;-77
2022/05/25 09:08:38;;;;;;;1.65;0.30;;;23.40;74.80;;;;;;5075688;28;20214;-77
2022/05/25 09:11:12;;;;;;;0.50;0.50;;;23.40;74.70;;;;;;5075364;28;20634;-77
2022/05/25 09:13:44;;;;;;;0.50;0.40;;;23.40;74.50;;;;;;5075613;28;20220;-77
2022/05/25 09:16:18;;;;;;;2.88;0.40;;;23.40;74.30;;;;;;5075339;28;20606;-77
2022/05/25 09:18:52;;;;;;;1.10;0.52;;;23.40;74.20;;;;;;5075222;28;20184;-77
2022/05/25 09:21:25;;;;;;;1.65;0.60;;;23.40;74.00;;;;;;5075059;28;20185;-77
2022/05/25 09:23:54;;;;;;;1.02;0.52;;;23.40;73.80;;;;;;5075389;28;20311;-77
2022/05/25 09:26:22;;;;;;;0.70;0.40;;;23.40;73.70;;;;;;5075360;28;20195;-77
2022/05/25 09:28:54;;;;;;;1.17;0.50;;;23.40;73.50;;;;;;5075228;28;20314;-77
2022/05/25 09:31:26;;;;;;;0.63;0.30;;;23.40;73.40;;;;;;5075070;28;20553;-77
2022/05/25 09:33:58;;;;;;;0.50;0.35;;;23.40;73.20;;;;;;5075214;28;20306;-77
2022/05/25 09:36:30;;;;;;;1.08;0.52;;;23.40;73.10;;;;;;5075222;28;20211;-77
2022/05/25 09:39:04;;;;;;;0.85;0.47;;;23.40;72.90;;;;;;5075154;28;20202;-77
2022/05/25 09:41:33;;;;;;;0.85;0.50;;;23.40;72.70;;;;;;5075154;28;20187;-77
2022/05/25 09:44:03;;;;;;;1.90;0.55;;;23.40;72.60;;;;;;5074956;28;20230;-77
2022/05/25 09:46:35;;;;;;;0.68;0.40;;;23.40;72.40;;;;;;5074967;28;20202;-77
2022/05/25 09:49:05;;;;;;;1.30;0.40;;;23.40;72.20;;;;;;5074975;28;20276;-77
2022/05/25 09:51:36;;;;;;;2.20;0.60;;;23.40;72.10;;;;;;5074916;28;20357;-77
2022/05/25 09:54:06;;;;;;;1.45;0.77;;;23.40;71.80;;;;;;5074738;28;20225;-77
2022/05/25 09:56:39;;;;;;;1.73;0.50;;;23.40;71.50;;;;;;5074858;28;20278;-77
2022/05/25 09:59:13;;;;;;;1.45;0.55;;;23.40;71.40;;;;;;5074771;28;20187;-77
2022/05/25 10:01:43;;;;;;;0.50;0.38;;;23.40;71.40;;;;;;5074607;28;20238;-77
2022/05/25 10:04:12;;;;;;;3.13;0.40;;;23.40;71.40;;;;;;5074373;28;20302;-77
2022/05/25 10:06:50;;;;;;;10.25;0.90;;;23.40;71.40;;;;;;5074481;28;20693;-79
2022/05/25 10:09:24;;;;;;;12.02;1.38;;;23.40;71.20;;;;;;5075919;28;20183;-77
2022/05/25 10:11:55;;;;;;;6.13;1.30;;;23.40;71.00;;;;;;5081410;28;20668;-76
2022/05/25 10:14:29;;;;;;;11.77;1.05;;;23.40;70.80;;;;;;5084276;28;20227;-77
2022/05/25 10:16:58;;;;;;;7.97;1.35;;;23.40;70.70;;;;;;5082672;28;20223;-76
2022/05/25 10:19:25;;;;;;;10.25;1.00;;;23.40;70.80;;;;;;5082057;28;20187;-76
2022/05/25 10:21:55;;;;;;;9.00;1.20;;;23.40;70.50;;;;;;5080314;28;20684;-77
2022/05/25 10:24:28;;;;;;;11.23;1.23;;;23.40;70.50;;;;;;5079875;28;20227;-78
2022/05/25 10:27:00;;;;;;;10.75;1.20;;;23.40;70.50;;;;;;5081701;28;20230;-82
2022/05/25 10:38:08;;;;;;;11.10;0.85;;;23.50;70.60;;;;;;5081876;28;20221;-81
2022/05/25 10:40:35;;;;;;;6.32;0.88;;;23.50;70.60;;;;;;5081493;28;20214;-79
2022/05/25 10:43:04;;;;;;;2.42;0.75;;;23.50;70.60;;;;;;5081641;28;20246;-80
2022/05/25 10:45:39;;;;;;;5.05;1.00;;;23.50;70.60;;;;;;5081133;28;20230;-78
2022/05/25 10:48:18;;;;;;;4.90;0.95;;;23.50;71.30;;;;;;5083048;28;20287;-77
2022/05/25 10:50:51;;;;;;;18.70;1.10;;;23.60;70.70;;;;;;5079753;28;20594;-77
2022/05/25 10:53:29;;;;;;;38.33;1.80;;;23.50;70.60;;;;;;5081665;28;20215;-77
2022/05/25 10:56:03;;;;;;;15.77;1.58;;;23.60;70.50;;;;;;5080522;28;20184;-77
2022/05/25 10:58:44;;;;;;;9.88;1.02;;;23.60;70.50;;;;;;5081583;28;20211;-77
2022/05/25 11:01:26;;;;;;;11.73;1.42;;;23.60;70.50;;;;;;5080791;28;20180;-77
2022/05/25 11:04:13;;;;;;;6.38;0.98;;;23.60;70.50;;;;;;5079722;28;20269;-76
2022/05/25 11:06:53;;;;;;;4.18;1.13;;;23.60;70.60;;;;;;5074508;28;20195;-77
2022/05/25 11:09:38;;;;;;;7.03;1.00;;;23.60;70.80;;;;;;5073994;28;20674;-78
2022/05/25 11:12:20;;;;;;;9.88;1.45;;;23.70;70.70;;;;;;5075221;28;20184;-77
2022/05/25 11:14:59;;;;;;;5.07;1.48;;;23.70;70.70;;;;;;5075985;28;20249;-77
2022/05/25 11:17:40;;;;;;;8.73;1.80;;;23.70;70.70;;;;;;5073901;28;20180;-77
2022/05/25 11:20:24;;;;;;;8.88;2.22;;;23.70;70.50;;;;;;5073071;28;20245;-77
2022/05/25 11:23:09;;;;;;;8.98;1.92;;;23.70;70.50;;;;;;5073457;28;20215;-76
2022/05/25 11:25:51;;;;;;;10.85;2.08;;;23.70;70.50;;;;;;5073578;28;20187;-77
2022/05/25 11:28:26;;;;;;;8.55;1.90;;;23.60;70.50;;;;;;5073548;28;20561;-76
2022/05/25 11:31:10;;;;;;;6.82;1.80;;;23.60;70.40;;;;;;5073424;28;20187;-76
2022/05/25 11:34:07;;;;;;;4.88;1.73;;;23.70;70.40;;;;;;5074088;28;20251;-77
2022/05/25 11:36:46;;;;;;;5.40;1.27;;;23.70;70.20;;;;;;5059733;28;20203;-76
2022/05/25 11:39:25;;;;;;;8.57;1.20;;;23.60;70.20;;;;;;5073685;28;20549;-78
2022/05/25 11:42:07;;;;;;;4.68;1.20;;;23.60;70.00;;;;;;5073821;28;20644;-77
2022/05/25 11:45:03;;;;;;;4.00;0.90;;;23.70;70.70;;;;;;5077451;28;20692;-74
2022/05/25 11:47:47;;;;;;;1.95;0.90;;;23.60;69.70;;;;;;5077245;28;20299;-77
2022/05/25 11:50:29;;;;;;;2.75;0.90;;;23.60;69.70;;;;;;5078511;28;20617;-78
2022/05/25 11:53:20;;;;;;;3.75;1.17;;;23.60;69.60;;;;;;5078678;28;20222;-78
2022/05/25 11:55:57;;;;;;;1.58;0.85;;;23.60;70.30;;;;;;5061442;28;20199;-78
2022/05/25 11:58:38;;;;;;;3.38;0.85;;;23.60;69.60;;;;;;5078802;28;20193;-78
2022/05/25 12:01:16;;;;;;;2.58;1.15;;;23.60;69.60;;;;;;5078855;28;20180;-76
2022/05/25 12:04:01;;;;;;;3.42;0.98;;;23.60;69.50;;;;;;5076827;28;20233;-79
2022/05/25 12:06:53;;;;;;;7.47;1.27;;;23.60;69.40;;;;;;5079609;28;20188;-79
2022/05/25 12:09:35;;;;;;;29.67;1.70;;;23.70;69.30;;;;;;5079637;28;20299;-78
2022/05/25 12:12:11;;;;;;;9.18;1.38;;;23.70;69.40;;;;;;5077580;28;20651;-78
2022/05/25 12:14:55;;;;;;;22.50;2.13;;;23.70;69.40;;;;;;5078577;28;20203;-77
2022/05/25 12:17:32;;;;;;;30.67;1.48;;;23.70;69.00;;;;;;5077837;28;20274;-77
2022/05/25 12:20:03;;;;;;;17.23;1.45;;;23.70;68.90;;;;;;5077343;28;20184;-77
2022/05/25 12:22:34;;;;;;;27.00;1.48;;;23.60;68.80;;;;;;5077132;28;20219;-78
2022/05/25 12:25:07;;;;;;;22.17;1.80;;;23.60;68.70;;;;;;5081747;28;20202;-78
2022/05/25 12:27:40;;;;;;;21.38;1.73;;;23.60;68.60;;;;;;5082419;28;20183;-79
2022/05/25 12:30:13;;;;;;;24.15;2.40;;;23.60;68.50;;;;;;5082783;28;20682;-78
2022/05/25 12:32:41;;;;;;;16.20;1.75;;;23.60;68.40;;;;;;5084681;28;20223;-79
2022/05/25 12:35:13;;;;;;;15.02;1.95;;;23.60;68.30;;;;;;5085795;28;20238;-79
2022/05/25 12:37:43;;;;;;;11.65;1.30;;;23.70;68.30;;;;;;5085212;28;20184;-79
2022/05/25 12:40:13;;;;;;;9.43;1.55;;;23.60;68.10;;;;;;5084030;28;20667;-79
2022/05/25 12:42:45;;;;;;;16.08;2.25;;;23.60;68.10;;;;;;5084997;28;20219;-80
2022/05/25 12:48:47;;;;;;;7.35;0.82;;;23.70;67.80;;;;;;5074389;28;20601;-80
2022/05/25 12:51:34;;;;;;;14.98;1.38;;;23.60;67.90;;;;;;5083970;28;20184;-80
2022/05/25 12:54:04;;;;;;;9.18;1.15;;;23.70;67.80;;;;;;5082510;28;20223;-79
2022/05/25 12:56:38;;;;;;;11.60;1.38;;;23.60;67.80;;;;;;5084504;28;20230;-79
2022/05/25 12:59:10;;;;;;;10.40;0.95;;;23.70;67.80;;;;;;5083592;28;20180;-79
2022/05/25 13:01:40;;;;;;;5.65;0.80;;;23.60;67.60;;;;;;5083047;28;20279;-79
2022/05/25 13:04:47;;;;;;;8.50;1.00;;;23.70;67.70;;;;;;5083091;28;20257;-79
2022/05/25 13:07:41;;;;;;;7.65;0.90;;;23.70;67.40;;;;;;5082991;28;20206;-79
2022/05/25 13:10:24;;;;;;;4.45;1.25;;;23.70;67.40;;;;;;5082941;28;20207;-79
2022/05/25 13:12:56;;;;;;;5.50;1.30;;;23.70;67.40;;;;;;5083141;28;20279;-78
2022/05/25 13:15:47;;;;;;;6.80;1.10;;;23.60;67.40;;;;;;5081130;28;20187;-80
2022/05/25 13:19:00;;;;;;;3.85;1.20;;;23.70;67.20;;;;;;5074430;28;20192;-79
2022/05/25 13:21:36;;;;;;;5.38;0.90;;;23.70;67.20;;;;;;5079849;28;20180;-79
2022/05/25 13:24:15;;;;;;;3.53;0.80;;;23.70;67.40;;;;;;5080372;28;20302;-79
2022/05/25 13:27:09;;;;;;;2.53;0.80;;;23.70;67.40;;;;;;5080753;28;20218;-79
2022/05/25 13:29:53;;;;;;;2.85;0.90;;;23.70;67.30;;;;;;5079424;28;20643;-79
2022/05/25 13:32:41;;;;;;;4.97;1.05;;;23.70;67.50;;;;;;5079830;28;20271;-79
2022/05/25 13:35:32;;;;;;;2.00;0.90;;;23.70;67.40;;;;;;5080169;28;20250;-79